Detall de PIREP

Printer-friendly versionPDF version

[2011/04/26 07:38:00]
Flight IATA:CT1004
Pilot Number:011
Company ICAO:CAT
Aircraft Type:F28/A
PAX:85
Departing Airport: EGLC
Destination Airport: LEPA
Alternate Airport:LEBL
Online: VATSIM
Route:LYD WAFFU HAWKE UG27 DRAKE UA34 SITET UN859 BCN UW7 LORES
Flight Level:F290
No Slew and time accel
No pause
Crash detect
Detect pilot in Cockpit between each 30 and 45 minutes
07:38 Zero fuel Weight: 57657 Lbs, Fuel Weight: 15086 Lbs
07:38 VATSIM:EGLC 260650Z 35009KT 9999 OVC013 09/06 Q1026
07:38 VATSIM:LEPA 260700Z 27007KT 220V300 9999 FEW017 SCT025 17/14 Q1012 NOSIG
07:42 Parking Brakes off
07:49 Take-off
07:49 Take off Weight: 72353 Lbs
07:49 Wind: 014º @ 009 Knots Heading: 087º
07:49 POS N51º 30´ 18´´ E000º 03´ 54´´
07:49 Gear Up: 149 Knots
07:49 Flaps:3 at 149 Knots
07:50 Flaps:2 at 207 Knots
07:50 Flaps:1 at 211 Knots
07:50 Flaps:0 at 218 Knots
08:04 Wind:002º@061 Knots Heading: 227º Ground Speed: 350 Knots Altitude 24629 ft
08:10 TOC
08:10 Fuel Weight: 12181 Lb
09:19 Wind:222º@019 Knots Heading: 177º Ground Speed: 443 Knots Altitude 28966 ft
09:20 TOD
09:20 Fuel Weight: 6734 Lb
09:34 Wind:341º@005 Knots Heading: 209º Ground Speed: 276 Knots Altitude 5652 ft
09:45 Flaps:1 at 211 Knots
09:46 Flaps:2 at 201 Knots
09:46 Flaps:3 at 191 Knots
09:46 Gear Down: 182 Knots
09:46 Flaps:4 at 146 Knots
09:46 Flaps:5 at 136 Knots
09:48 TouchDown:Rate -296 ft/min Speed: 95 Knots
09:48 Flaps:0 at 44 Knots
09:48 VATSIM:LEPA 260930Z 00000KT 9999 FEW020 SCT035 19/14 Q1013 NOSIG
09:48 Land
09:48 Wind:006º@000 Knots
09:48 Heading: 059º
09:48 Flight Duration: 01:59
09:48 Landing Weight: 63232 Lbs
09:48 POS N39º 33´ 02´´ E002º 43´ 05´´
09:49 Parking brakes on
09:49 Block to Block Duration: 02:07
09:49 Final Fuel: 5513 Lbls
09:49 Spent Fuel: 9572 Lbls
09:49 Flight Length: 167 NM
09:49 TOD Land Length: 59 NM

Exportar CSV

Powered by Drupal - Modified by Danger4k